Airfield :
LOGIN :

Register | Disclaimer

   EN    FR    IT 

 










Legend :    VFR   Marginal VFR   IFR   Intensive IFR   Very Intensive IFR
Visi :
Ceiling :
>= 8 km
>= 3000ft
5 to 8 km
1000 to 3000 ft
1500m to 5 km
500 to 1000 ft
800 to 1500m
200 to 500 ft
< 800m
< 200 ft
Symbols :   Thunderstorms  Fog  Heavy snow  Heavy precipitations  Wind > 20 kt
SIGMETs :     Misc.  Thunderstorms  Icing  Turbulence  Mountain Waves  Volcanic Ashes






- Airport Elevation : 499 ft
- IATA code : TLS


LFBO - Toulouse / Blagnac

CURRENT METAR :
  • 181230Z AUTO 32019KT 290V360 9999 BKN036/// BKN045/// BKN066/// //////TCU 14/03 Q1020 TEMPO 31015G25KT BECMG BKN035

EXPIRED METARs :
  • 181200Z AUTO 32016KT 9999 BKN038/// BKN045/// BKN054/// //////TCU 12/03 Q1020 TEMPO 31015G25KT BECMG BKN035
  • 181130Z AUTO 32016KT 9999 BKN045 BKN054 OVC064 12/04 Q1020 TEMPO 31015G25KT
  • 181100Z AUTO 32017KT 9999 FEW043 OVC052 12/02 Q1020 TEMPO 33017G28KT 4000 SHRA SCT030CB
  • 181030Z AUTO 32016KT 9999 SCT039 SCT049 OVC060 12/03 Q1020 TEMPO 33017G28KT 4000 SHRA SCT030CB
  • 181000Z AUTO 32013KT 9999 FEW012 BKN033 BKN039 11/04 Q1020 TEMPO 33017G28KT 4000 SHRA SCT030CB
  • 180930Z AUTO 32015KT 9999 BKN031 BKN048 BKN060 10/04 Q1020 TEMPO 33017G28KT 4000 SHRA SCT030CB
  • 180900Z AUTO 32016KT 9999 SCT031 SCT040 BKN047 10/05 Q1020 TEMPO 33017G28KT 4000 SHRA SCT030CB
  • 180830Z AUTO 30015KT 9999 SCT019 BKN028 BKN046 10/06 Q1020 TEMPO 33017G28KT 4000 SHRA SCT030CB

TAF TAF LFBO
Valid from the 18 at 12:00 until the 19 at 18:00 UTC


181100Z 1812/1918 31014KT 9999 BKN035
TEMPO 1812/1815 31015G25KT
BECMG 1815/1817 CAVOK
BECMG 1820/1822 VRB03KT
ATIS : +33 5 62 74 66 36



MET'MAP, your aeronautical weather chart ! - Copyright ORBIFLY December 2007 - Disclaimer

ORBIFLY MET'MAP TEAM :

Programming & Development : Alexandra Zaïnal
Original concept : Baudouin d'Aumeries
Technical & hardware support : Manuel Goepfert
Assistance : Marc-Olivier Méhu




SOURCES & CREDITS :

   NOAA